Time;durP1;ratioP1;P1;durP2;ratioP2;P2;SDS_P1;SDS_P2;PMS_P1;PMS_P2;Temp;Humidity;BMP_temperature;BMP_pressure;BME280_temperature;BME280_humidity;BME280_pressure;Samples;Min_cycle;Max_cycle;Signal;HPM_P1;HPM_P2
2022/02/26 00:01:07;;;;;;;17.67;6.93;;;;;;;-145.73;100.00;61044.97;5084346;28;20048;-72
2022/02/26 00:03:36;;;;;;;14.88;7.43;;;;;;;-145.73;100.00;61044.97;5084990;28;20470;-73
2022/02/26 00:06:04;;;;;;;15.43;6.20;;;;;;;-145.73;100.00;61044.97;5083887;28;20105;-71
2022/02/26 00:08:34;;;;;;;17.42;6.85;;;;;;;-145.73;100.00;61044.97;5080725;28;20051;-73
2022/02/26 00:11:02;;;;;;;17.42;6.60;;;;;;;-145.73;100.00;61044.97;5079072;28;20048;-72
2022/02/26 00:13:30;;;;;;;19.25;6.13;;;;;;;-145.73;100.00;61044.97;5083677;28;20044;-73
2022/02/26 00:15:58;;;;;;;15.98;6.88;;;;;;;-145.73;100.00;61044.97;5081041;28;20055;-73
2022/02/26 00:18:26;;;;;;;18.83;6.63;;;;;;;-145.73;100.00;61044.97;5081113;28;20097;-71
2022/02/26 00:20:54;;;;;;;18.48;6.35;;;;;;;-145.73;100.00;61044.97;5083267;28;20346;-72
2022/02/26 00:23:22;;;;;;;18.40;6.30;;;;;;;-145.73;100.00;61044.97;5085299;28;20048;-72
2022/02/26 00:25:51;;;;;;;17.00;6.22;;;;;;;-145.73;100.00;61044.97;5080277;28;20048;-72
2022/02/26 00:28:20;;;;;;;17.50;6.90;;;;;;;-145.73;100.00;61044.97;5083783;28;20588;-72
2022/02/26 00:30:48;;;;;;;20.00;6.03;;;;;;;-145.73;100.00;61044.97;5082715;28;20055;-73
2022/02/26 00:33:16;;;;;;;15.55;6.72;;;;;;;-145.73;100.00;61044.97;5084070;28;20464;-72
2022/02/26 00:35:44;;;;;;;15.15;5.68;;;;;;;-145.73;100.00;61044.97;5083222;28;20083;-73
2022/02/26 00:38:12;;;;;;;22.52;7.28;;;;;;;-145.73;100.00;61044.97;5078169;28;20048;-73
2022/02/26 00:40:40;;;;;;;13.48;6.30;;;;;;;-145.73;100.00;61044.97;5087039;28;20052;-74
2022/02/26 00:43:10;;;;;;;17.80;6.70;;;;;;;-145.73;100.00;61044.97;5079931;28;20131;-74
2022/02/26 00:45:37;;;;;;;13.75;5.70;;;;;;;-145.73;100.00;61044.97;5080574;28;20048;-74
2022/02/26 00:48:06;;;;;;;13.50;5.40;;;;;;;-145.73;100.00;61044.97;5093489;28;20146;-74
2022/02/26 00:50:33;;;;;;;16.13;5.75;;;;;;;-145.73;100.00;61044.97;5079849;28;20052;-75
2022/02/26 00:53:00;;;;;;;15.52;5.68;;;;;;;-145.73;100.00;61044.97;5078112;28;20237;-75
2022/02/26 00:55:28;;;;;;;15.00;6.85;;;;;;;-145.73;100.00;61044.97;5085014;28;20455;-73
2022/02/26 00:57:56;;;;;;;14.20;6.38;;;;;;;-145.73;100.00;61044.97;5082530;28;20078;-75
2022/02/26 01:00:25;;;;;;;15.35;7.72;;;;;;;-145.73;100.00;61044.97;5083970;28;20134;-75
2022/02/26 01:02:53;;;;;;;12.35;6.60;;;;;;;-145.73;100.00;61044.97;5083585;28;20082;-74
2022/02/26 01:05:21;;;;;;;20.25;8.20;;;;;;;-145.73;100.00;61044.97;5079215;28;20134;-75
2022/02/26 01:07:49;;;;;;;14.93;6.80;;;;;;;-145.73;100.00;61044.97;5081366;28;20093;-75
2022/02/26 01:10:16;;;;;;;17.95;7.05;;;;;;;-145.73;100.00;61044.97;5079357;28;20539;-75
2022/02/26 01:12:44;;;;;;;19.38;7.05;;;;;;;-145.73;100.00;61044.97;5081597;28;20058;-75
2022/02/26 01:15:12;;;;;;;15.93;6.75;;;;;;;-145.73;100.00;61044.97;5079557;28;20087;-75
2022/02/26 01:17:41;;;;;;;19.73;6.80;;;;;;;-145.73;100.00;61044.97;5084080;28;20044;-75
2022/02/26 01:20:09;;;;;;;13.02;5.80;;;;;;;-145.73;100.00;61044.97;5080694;28;20536;-74
2022/02/26 01:22:37;;;;;;;14.05;5.78;;;;;;;-145.73;100.00;61044.97;5083750;28;20060;-73
2022/02/26 01:25:06;;;;;;;13.10;6.82;;;;;;;-145.73;100.00;61044.97;5083758;28;20058;-75
2022/02/26 01:27:34;;;;;;;16.98;6.40;;;;;;;-145.73;100.00;61044.97;5083719;28;20084;-75
2022/02/26 01:30:02;;;;;;;13.77;6.93;;;;;;;-145.73;100.00;61044.97;5084489;28;20050;-75
2022/02/26 01:32:30;;;;;;;15.88;7.00;;;;;;;-145.73;100.00;61044.97;5080864;28;20074;-74
2022/02/26 01:35:02;;;;;;;14.23;6.88;;;;;;;-145.73;100.00;61044.97;5081456;28;20070;-74
2022/02/26 01:37:29;;;;;;;9.77;5.78;;;;;;;-145.73;100.00;61044.97;5078362;28;20491;-74
2022/02/26 01:39:58;;;;;;;17.65;7.35;;;;;;;-145.73;100.00;61044.97;5083254;28;20089;-73
2022/02/26 01:42:27;;;;;;;14.10;7.28;;;;;;;-145.73;100.00;61044.97;5081513;28;20066;-74
2022/02/26 01:44:56;;;;;;;15.95;6.38;;;;;;;-145.73;100.00;61044.97;5080797;28;20047;-74
2022/02/26 01:47:24;;;;;;;14.40;6.68;;;;;;;-145.73;100.00;61044.97;5080828;28;20043;-73
2022/02/26 01:49:51;;;;;;;12.88;7.35;;;;;;;-145.73;100.00;61044.97;5078689;28;20496;-73
2022/02/26 01:52:21;;;;;;;19.50;7.47;;;;;;;-145.73;100.00;61044.97;5079641;28;20068;-73
2022/02/26 01:54:49;;;;;;;13.95;6.78;;;;;;;-145.73;100.00;61044.97;5079767;28;20201;-73
2022/02/26 01:57:17;;;;;;;18.15;6.38;;;;;;;-145.73;100.00;61044.97;5083503;28;20135;-73
2022/02/26 01:59:45;;;;;;;17.02;6.70;;;;;;;-145.73;100.00;61044.97;5080694;28;20113;-73
2022/02/26 02:02:12;;;;;;;19.42;6.93;;;;;;;-145.73;100.00;61044.97;5079423;28;20075;-73
2022/02/26 02:04:41;;;;;;;21.33;7.72;;;;;;;-145.73;100.00;61044.97;5081131;28;20500;-73
2022/02/26 02:07:09;;;;;;;16.60;6.40;;;;;;;-145.73;100.00;61044.97;5077163;28;20055;-73
2022/02/26 02:09:39;;;;;;;13.52;6.38;;;;;;;-145.73;100.00;61044.97;5082585;28;20048;-73
2022/02/26 02:12:09;;;;;;;15.23;6.50;;;;;;;-145.73;100.00;61044.97;5078900;28;20048;-73
2022/02/26 02:14:37;;;;;;;12.30;7.30;;;;;;;-145.73;100.00;61044.97;5084803;28;20167;-73
2022/02/26 02:17:05;;;;;;;13.23;6.53;;;;;;;-145.73;100.00;61044.97;5082358;28;20075;-73
2022/02/26 02:19:34;;;;;;;14.15;6.30;;;;;;;-145.73;100.00;61044.97;5086105;28;20131;-72
2022/02/26 02:22:05;;;;;;;18.27;6.30;;;;;;;-145.73;100.00;61044.97;5074658;28;20123;-73
2022/02/26 02:24:33;;;;;;;22.70;5.90;;;;;;;-145.73;100.00;61044.97;5078199;28;20113;-73
2022/02/26 02:27:03;;;;;;;21.27;6.30;;;;;;;-145.73;100.00;61044.97;5080630;28;20328;-73
2022/02/26 02:29:31;;;;;;;18.27;6.95;;;;;;;-145.73;100.00;61044.97;5077548;28;20139;-73
2022/02/26 02:31:59;;;;;;;17.02;6.85;;;;;;;-145.73;100.00;61044.97;5081990;28;20064;-72
2022/02/26 02:34:33;;;;;;;12.52;6.20;;;;;;;-145.73;100.00;61044.97;5080172;28;20551;-72
2022/02/26 02:37:03;;;;;;;16.52;5.90;;;;;;;-145.73;100.00;61044.97;5080524;28;20089;-73
2022/02/26 02:39:31;;;;;;;16.20;6.05;;;;;;;-145.73;100.00;61044.97;5077848;28;20039;-72
2022/02/26 02:41:59;;;;;;;27.23;6.57;;;;;;;-145.73;100.00;61044.97;5079260;28;20452;-73
2022/02/26 02:44:27;;;;;;;14.88;6.20;;;;;;;-145.73;100.00;61044.97;5079065;28;20243;-73
2022/02/26 02:46:55;;;;;;;16.95;5.70;;;;;;;-145.73;100.00;61044.97;5080488;28;20048;-73
2022/02/26 02:49:23;;;;;;;14.02;5.85;;;;;;;-145.73;100.00;61044.97;5080506;28;20070;-73
2022/02/26 02:51:51;;;;;;;18.88;6.75;;;;;;;-145.73;100.00;61044.97;5082361;28;20056;-74
2022/02/26 02:54:20;;;;;;;18.67;6.35;;;;;;;-145.73;100.00;61044.97;5077709;28;20577;-73
2022/02/26 02:56:49;;;;;;;18.45;6.43;;;;;;;-145.73;100.00;61044.97;5079680;28;20087;-74
2022/02/26 02:59:18;;;;;;;17.60;6.78;;;;;;;-145.73;100.00;61044.97;5078421;28;20506;-73
2022/02/26 03:01:45;;;;;;;11.57;5.50;;;;;;;-145.73;100.00;61044.97;5076998;28;20051;-74
2022/02/26 03:04:13;;;;;;;18.23;6.75;;;;;;;-145.73;100.00;61044.97;5081243;28;20047;-73
2022/02/26 03:06:41;;;;;;;17.33;6.03;;;;;;;-145.73;100.00;61044.97;5079975;28;20123;-74
2022/02/26 03:09:09;;;;;;;15.27;5.43;;;;;;;-145.73;100.00;61044.97;5079624;28;20153;-74
2022/02/26 03:11:38;;;;;;;20.65;6.35;;;;;;;-145.73;100.00;61044.97;5078027;28;20499;-74
2022/02/26 03:14:08;;;;;;;15.57;7.75;;;;;;;-145.73;100.00;61044.97;5079198;28;20855;-74
2022/02/26 03:16:37;;;;;;;22.05;6.78;;;;;;;-145.73;100.00;61044.97;5079201;28;20066;-73
2022/02/26 03:19:05;;;;;;;14.93;5.68;;;;;;;-145.73;100.00;61044.97;5078106;28;20520;-73
2022/02/26 03:21:35;;;;;;;12.25;5.55;;;;;;;-145.73;100.00;61044.97;5080099;28;20627;-73
2022/02/26 03:24:04;;;;;;;15.60;5.10;;;;;;;-145.73;100.00;61044.97;5079298;28;20097;-73
2022/02/26 03:26:33;;;;;;;16.30;6.03;;;;;;;-145.73;100.00;61044.97;5081191;28;20130;-74
2022/02/26 03:29:02;;;;;;;16.73;6.00;;;;;;;-145.73;100.00;61044.97;5079725;28;20072;-73
2022/02/26 03:31:33;;;;;;;15.52;6.47;;;;;;;-145.73;100.00;61044.97;5080321;28;20056;-73
2022/02/26 03:34:00;;;;;;;14.35;6.25;;;;;;;-145.73;100.00;61044.97;5082577;28;20054;-74
2022/02/26 03:36:33;;;;;;;15.23;5.40;;;;;;;-145.73;100.00;61044.97;5073993;28;20066;-74
2022/02/26 03:39:01;;;;;;;11.65;4.85;;;;;;;-145.73;100.00;61044.97;5080610;28;20044;-73
2022/02/26 03:41:29;;;;;;;16.55;6.35;;;;;;;-145.73;100.00;61044.97;5078639;28;20136;-73
2022/02/26 03:43:56;;;;;;;17.13;6.03;;;;;;;-145.73;100.00;61044.97;5077552;28;20076;-74
2022/02/26 03:46:25;;;;;;;12.50;5.53;;;;;;;-145.73;100.00;61044.97;5079637;28;20055;-74
2022/02/26 03:48:53;;;;;;;14.65;5.25;;;;;;;-145.73;100.00;61044.97;5076895;28;20416;-74
2022/02/26 03:51:21;;;;;;;22.27;7.88;;;;;;;-145.73;100.00;61044.97;5074427;28;20052;-73
2022/02/26 03:53:49;;;;;;;22.98;7.32;;;;;;;-145.73;100.00;61044.97;5078364;28;20150;-74
2022/02/26 03:56:17;;;;;;;13.27;6.35;;;;;;;-145.73;100.00;61044.97;5078730;28;20102;-74
2022/02/26 03:58:45;;;;;;;22.25;6.72;;;;;;;-145.73;100.00;61044.97;5081551;28;20056;-75
2022/02/26 04:01:12;;;;;;;14.05;5.78;;;;;;;-145.73;100.00;61044.97;5078684;28;20149;-73
2022/02/26 04:03:44;;;;;;;14.30;5.78;;;;;;;-145.73;100.00;61044.97;5072950;28;20101;-73
2022/02/26 04:06:14;;;;;;;17.90;6.25;;;;;;;-145.73;100.00;61044.97;5077339;28;20101;-73
2022/02/26 04:08:43;;;;;;;13.25;5.75;;;;;;;-145.73;100.00;61044.97;5078294;28;20590;-73
2022/02/26 04:11:11;;;;;;;10.50;6.35;;;;;;;-145.73;100.00;61044.97;5080614;28;20048;-74
2022/02/26 04:13:39;;;;;;;18.63;5.95;;;;;;;-145.73;100.00;61044.97;5076794;28;20076;-73
2022/02/26 04:16:08;;;;;;;15.73;6.47;;;;;;;-145.73;100.00;61044.97;5077637;28;20492;-73
2022/02/26 04:18:36;;;;;;;19.52;6.93;;;;;;;-145.73;100.00;61044.97;5080658;28;20052;-73
2022/02/26 04:21:06;;;;;;;14.52;5.13;;;;;;;-145.73;100.00;61044.97;5081906;28;20070;-73
2022/02/26 04:23:34;;;;;;;13.02;5.70;;;;;;;-145.73;100.00;61044.97;5083856;28;20135;-74
2022/02/26 04:26:01;;;;;;;13.32;5.40;;;;;;;-145.73;100.00;61044.97;5080487;28;20119;-74
2022/02/26 04:28:29;;;;;;;12.40;5.35;;;;;;;-145.73;100.00;61044.97;5080365;28;20564;-72
2022/02/26 04:30:57;;;;;;;19.15;6.90;;;;;;;-145.73;100.00;61044.97;5085067;28;20127;-74
2022/02/26 04:33:27;;;;;;;15.27;5.63;;;;;;;-145.73;100.00;61044.97;5082593;28;20044;-73
2022/02/26 04:35:54;;;;;;;13.07;5.65;;;;;;;-145.73;100.00;61044.97;5083357;28;20048;-73
2022/02/26 04:38:23;;;;;;;15.43;6.68;;;;;;;-145.73;100.00;61044.97;5078317;28;20433;-73
2022/02/26 04:40:53;;;;;;;9.52;4.68;;;;;;;-145.73;100.00;61044.97;5080051;28;20090;-73
2022/02/26 04:43:21;;;;;;;15.05;5.78;;;;;;;-145.73;100.00;61044.97;5080640;28;20044;-73
2022/02/26 04:45:49;;;;;;;11.45;5.57;;;;;;;-145.73;100.00;61044.97;5080395;28;20100;-73
2022/02/26 04:48:16;;;;;;;16.38;6.13;;;;;;;-145.73;100.00;61044.97;5081835;28;20118;-73
2022/02/26 04:50:44;;;;;;;15.18;5.30;;;;;;;-145.73;100.00;61044.97;5081732;28;20048;-72
2022/02/26 04:53:12;;;;;;;15.18;5.18;;;;;;;-145.73;100.00;61044.97;5078434;28;20052;-71
2022/02/26 04:55:42;;;;;;;15.75;5.45;;;;;;;-145.73;100.00;61044.97;5080689;28;20553;-72
2022/02/26 04:58:10;;;;;;;19.95;6.60;;;;;;;-145.73;100.00;61044.97;5082458;28;20130;-74
2022/02/26 05:00:39;;;;;;;17.77;6.53;;;;;;;-145.73;100.00;61044.97;5085188;28;20043;-73
2022/02/26 05:03:07;;;;;;;11.27;5.50;;;;;;;-145.73;100.00;61044.97;5081083;28;20081;-72
2022/02/26 05:05:38;;;;;;;12.40;6.55;;;;;;;-145.73;100.00;61044.97;5084570;28;20165;-72
2022/02/26 05:08:06;;;;;;;14.25;5.63;;;;;;;-145.73;100.00;61044.97;5083167;28;20054;-72
2022/02/26 05:10:35;;;;;;;9.30;5.00;;;;;;;-145.73;100.00;61044.97;5083991;28;20093;-72
2022/02/26 05:13:04;;;;;;;14.00;5.95;;;;;;;-145.73;100.00;61044.97;5079804;28;20086;-73
2022/02/26 05:15:32;;;;;;;13.40;4.90;;;;;;;-145.73;100.00;61044.97;5077898;28;20519;-72
2022/02/26 05:17:59;;;;;;;10.70;5.30;;;;;;;-145.73;100.00;61044.97;5081775;28;20555;-71
2022/02/26 05:20:28;;;;;;;15.35;5.50;;;;;;;-145.73;100.00;61044.97;5078685;28;20127;-72
2022/02/26 05:22:55;;;;;;;20.60;8.30;;;;;;;-145.73;100.00;61044.97;5085301;28;20479;-71
2022/02/26 05:25:24;;;;;;;18.27;6.25;;;;;;;-145.73;100.00;61044.97;5081525;28;20040;-73
2022/02/26 05:27:52;;;;;;;12.30;5.75;;;;;;;-145.73;100.00;61044.97;5077040;28;20127;-71
2022/02/26 05:30:21;;;;;;;15.60;5.90;;;;;;;-145.73;100.00;61044.97;5086451;28;20048;-72
2022/02/26 05:32:49;;;;;;;20.85;6.50;;;;;;;-145.73;100.00;61044.97;5081202;28;20784;-72
2022/02/26 05:35:19;;;;;;;20.27;6.88;;;;;;;-145.73;100.00;61044.97;5081649;28;20051;-74
2022/02/26 05:37:47;;;;;;;17.25;7.28;;;;;;;-145.73;100.00;61044.97;5080382;28;20052;-73
2022/02/26 05:40:15;;;;;;;24.08;7.95;;;;;;;-145.73;100.00;61044.97;5082175;28;20044;-73
2022/02/26 05:42:43;;;;;;;15.32;6.25;;;;;;;-145.73;100.00;61044.97;5078834;28;20055;-72
2022/02/26 05:45:12;;;;;;;18.20;6.45;;;;;;;-145.73;100.00;61044.97;5081261;28;20055;-72
2022/02/26 05:47:45;;;;;;;19.95;7.30;;;;;;;-145.73;100.00;61044.97;5082334;28;20109;-72
2022/02/26 05:50:14;;;;;;;15.82;5.75;;;;;;;-145.73;100.00;61044.97;5080530;28;20050;-73
2022/02/26 05:52:43;;;;;;;8.52;4.32;;;;;;;-145.73;100.00;61044.97;5077224;28;20066;-72
2022/02/26 05:55:11;;;;;;;11.98;5.85;;;;;;;-145.73;100.00;61044.97;5082092;28;20040;-72
2022/02/26 05:57:40;;;;;;;13.50;6.25;;;;;;;-145.73;100.00;61044.97;5080180;28;20056;-73
2022/02/26 06:00:10;;;;;;;24.42;9.20;;;;;;;-145.73;100.00;61044.97;5084329;28;20378;-72
2022/02/26 06:02:38;;;;;;;12.95;5.22;;;;;;;-145.73;100.00;61044.97;5082981;28;20048;-72
2022/02/26 06:05:10;;;;;;;12.30;5.10;;;;;;;-145.73;100.00;61044.97;5078121;28;20087;-71
2022/02/26 06:07:37;;;;;;;13.13;5.60;;;;;;;-145.73;100.00;61044.97;5081219;28;20058;-72
2022/02/26 06:10:09;;;;;;;14.02;5.43;;;;;;;-145.73;100.00;61044.97;5078920;28;20131;-72
2022/02/26 06:12:37;;;;;;;11.25;5.47;;;;;;;-145.73;100.00;61044.97;5082558;28;20112;-72
2022/02/26 06:15:06;;;;;;;13.13;5.90;;;;;;;-145.73;100.00;61044.97;5080931;28;20564;-73
2022/02/26 06:17:42;;;;;;;16.02;6.00;;;;;;;-145.73;100.00;61044.97;5076809;28;20097;-72
2022/02/26 06:20:13;;;;;;;9.70;4.57;;;;;;;-145.73;100.00;61044.97;5082055;28;20070;-73
2022/02/26 06:22:41;;;;;;;14.05;5.57;;;;;;;-145.73;100.00;61044.97;5080428;28;20079;-72
2022/02/26 06:25:10;;;;;;;11.63;5.35;;;;;;;-145.73;100.00;61044.97;5081871;28;20043;-74
2022/02/26 06:27:40;;;;;;;13.23;4.85;;;;;;;-145.73;100.00;61044.97;5081307;28;20488;-73
2022/02/26 06:30:11;;;;;;;13.73;5.35;;;;;;;-145.73;100.00;61044.97;5082311;28;20048;-72
2022/02/26 06:32:40;;;;;;;14.07;4.93;;;;;;;-145.73;100.00;61044.97;5078894;28;20100;-71
2022/02/26 06:35:09;;;;;;;11.85;5.97;;;;;;;-145.73;100.00;61044.97;5079324;28;20048;-72
2022/02/26 06:37:39;;;;;;;19.63;6.65;;;;;;;-145.73;100.00;61044.97;5077332;28;20052;-72
2022/02/26 06:40:08;;;;;;;22.02;8.25;;;;;;;-145.73;100.00;61044.97;5075927;28;20039;-72
2022/02/26 06:42:37;;;;;;;17.48;7.68;;;;;;;-145.73;100.00;61044.97;5079118;28;20495;-72
2022/02/26 06:45:07;;;;;;;17.42;7.00;;;;;;;-145.73;100.00;61044.97;5079326;28;20052;-73
2022/02/26 06:47:58;;;;;;;16.67;5.53;;;;;;;-145.73;100.00;61044.97;5074072;28;20051;-73
2022/02/26 06:50:28;;;;;;;13.90;5.65;;;;;;;-145.73;100.00;61044.97;5078048;28;20636;-73
2022/02/26 06:52:57;;;;;;;13.00;5.60;;;;;;;-145.73;100.00;61044.97;5077565;28;20159;-73
2022/02/26 06:55:25;;;;;;;11.65;5.50;;;;;;;-145.73;100.00;61044.97;5078292;28;20134;-73
2022/02/26 06:57:53;;;;;;;12.95;6.20;;;;;;;-145.73;100.00;61044.97;5080468;28;20032;-73
2022/02/26 07:00:21;;;;;;;12.95;5.47;;;;;;;-145.73;100.00;61044.97;5079836;28;20553;-73
2022/02/26 07:02:51;;;;;;;13.02;5.80;;;;;;;-145.73;100.00;61044.97;5078929;28;20536;-74
2022/02/26 07:05:19;;;;;;;16.10;5.90;;;;;;;-145.73;100.00;61044.97;5078854;28;20044;-73
2022/02/26 07:07:47;;;;;;;14.32;5.75;;;;;;;-145.73;100.00;61044.97;5081897;28;20067;-72
2022/02/26 07:10:16;;;;;;;17.80;6.20;;;;;;;-145.73;100.00;61044.97;5079400;28;20055;-73
2022/02/26 07:12:47;;;;;;;17.33;7.25;;;;;;;-145.73;100.00;61044.97;5080902;28;20051;-73
2022/02/26 07:15:15;;;;;;;15.00;7.25;;;;;;;-145.73;100.00;61044.97;5080678;28;20048;-74
2022/02/26 07:17:43;;;;;;;16.92;6.47;;;;;;;-145.73;100.00;61044.97;5079408;28;20484;-73
2022/02/26 07:20:17;;;;;;;13.90;6.03;;;;;;;-145.73;100.00;61044.97;5075745;28;20056;-74
2022/02/26 07:22:45;;;;;;;17.75;6.65;;;;;;;-145.73;100.00;61044.97;5079692;28;20062;-73
2022/02/26 07:25:13;;;;;;;15.23;6.88;;;;;;;-145.73;100.00;61044.97;5078132;28;20097;-73
2022/02/26 07:27:42;;;;;;;17.90;5.72;;;;;;;-145.73;100.00;61044.97;5080695;28;20056;-73
2022/02/26 07:30:11;;;;;;;12.43;5.63;;;;;;;-145.73;100.00;61044.97;5078764;28;20348;-73
2022/02/26 07:32:39;;;;;;;14.32;5.65;;;;;;;-145.73;100.00;61044.97;5076434;28;20109;-73
2022/02/26 07:35:08;;;;;;;14.00;6.55;;;;;;;-145.73;100.00;61044.97;5081350;28;20051;-73
2022/02/26 07:37:36;;;;;;;19.02;9.00;;;;;;;-145.73;100.00;61044.97;5076364;28;20079;-73
2022/02/26 07:40:05;;;;;;;28.45;9.40;;;;;;;-145.73;100.00;61044.97;5080158;28;20048;-73
2022/02/26 07:42:33;;;;;;;19.95;8.82;;;;;;;-145.73;100.00;61044.97;5077449;28;20067;-73
2022/02/26 07:45:02;;;;;;;24.50;9.85;;;;;;;-145.73;100.00;61044.97;5075844;28;20055;-72
2022/02/26 07:47:30;;;;;;;22.35;10.30;;;;;;;-145.73;100.00;61044.97;5086376;28;20047;-72
2022/02/26 07:49:58;;;;;;;33.22;12.27;;;;;;;-145.73;100.00;61044.97;5074482;28;20574;-72
2022/02/26 07:52:31;;;;;;;37.90;15.65;;;;;;;-145.73;100.00;61044.97;5076084;28;20070;-71
2022/02/26 07:55:00;;;;;;;32.72;14.70;;;;;;;-145.73;100.00;61044.97;5082957;28;20388;-74
2022/02/26 07:57:28;;;;;;;33.13;15.93;;;;;;;-145.73;100.00;61044.97;5083245;28;20043;-72
2022/02/26 07:59:56;;;;;;;38.95;16.48;;;;;;;-145.73;100.00;61044.97;5077638;28;20127;-72
2022/02/26 08:02:25;;;;;;;35.90;17.13;;;;;;;-145.73;100.00;61044.97;5079994;28;20047;-71
2022/02/26 08:04:53;;;;;;;34.38;16.48;;;;;;;-145.73;100.00;61044.97;5091404;28;20062;-72
2022/02/26 08:07:21;;;;;;;35.58;17.35;;;;;;;-145.73;100.00;61044.97;5082492;28;20117;-72
2022/02/26 08:09:49;;;;;;;40.35;18.60;;;;;;;-145.73;100.00;61044.97;5080939;28;20051;-73
2022/02/26 08:12:17;;;;;;;38.78;18.45;;;;;;;-145.73;100.00;61044.97;5084650;28;20070;-72
2022/02/26 08:14:45;;;;;;;41.65;18.52;;;;;;;-145.73;100.00;61044.97;5080071;28;20102;-72
2022/02/26 08:17:12;;;;;;;39.22;20.00;;;;;;;-145.73;100.00;61044.97;5080186;28;20130;-72
2022/02/26 08:19:42;;;;;;;40.92;19.92;;;;;;;-145.73;100.00;61044.97;5081623;28;20075;-72
2022/02/26 08:22:10;;;;;;;37.22;19.88;;;;;;;-145.73;100.00;61044.97;5081026;28;20067;-72
2022/02/26 08:24:38;;;;;;;44.97;21.00;;;;;;;-145.73;100.00;61044.97;5083844;28;20503;-72
2022/02/26 08:27:06;;;;;;;41.67;22.17;;;;;;;-145.73;100.00;61044.97;5084465;28;20497;-73
2022/02/26 08:29:34;;;;;;;41.15;21.45;;;;;;;-145.73;100.00;61044.97;5082441;28;20040;-72
2022/02/26 08:32:03;;;;;;;41.25;21.50;;;;;;;-145.73;100.00;61044.97;5081558;28;20108;-72
2022/02/26 08:34:31;;;;;;;43.60;24.20;;;;;;;-145.73;100.00;61044.97;5078750;28;20052;-72
2022/02/26 08:37:01;;;;;;;47.47;24.75;;;;;;;-145.73;100.00;61044.97;5082862;28;20150;-73
2022/02/26 08:39:30;;;;;;;43.88;22.58;;;;;;;-145.73;100.00;61044.97;5083489;28;20168;-73
2022/02/26 08:41:59;;;;;;;47.95;24.67;;;;;;;-145.73;100.00;61044.97;5080903;28;20055;-74
2022/02/26 08:44:27;;;;;;;45.88;24.80;;;;;;;-145.73;100.00;61044.97;5080275;28;20127;-74
2022/02/26 08:46:55;;;;;;;48.90;25.30;;;;;;;-145.73;100.00;61044.97;5081706;28;20048;-74
2022/02/26 08:49:23;;;;;;;48.25;23.77;;;;;;;-145.73;100.00;61044.97;5081975;28;20123;-74
2022/02/26 08:51:52;;;;;;;45.78;25.85;;;;;;;-145.73;100.00;61044.97;5084167;28;20075;-73
2022/02/26 08:54:21;;;;;;;46.38;25.08;;;;;;;-145.73;100.00;61044.97;5079435;28;20127;-73
2022/02/26 08:56:49;;;;;;;49.00;25.33;;;;;;;-145.73;100.00;61044.97;5084858;28;20079;-73
2022/02/26 08:59:17;;;;;;;50.55;26.10;;;;;;;-145.73;100.00;61044.97;5084557;28;20043;-74
2022/02/26 09:01:45;;;;;;;51.00;25.33;;;;;;;-145.73;100.00;61044.97;5081028;28;21234;-73
2022/02/26 09:04:14;;;;;;;49.58;25.90;;;;;;;-145.73;100.00;61044.97;5082437;28;20048;-73
2022/02/26 09:06:42;;;;;;;51.75;25.80;;;;;;;-145.73;100.00;61044.97;5080778;28;20056;-74
2022/02/26 09:09:10;;;;;;;52.20;25.85;;;;;;;-145.73;100.00;61044.97;5083448;28;20506;-73
2022/02/26 09:11:41;;;;;;;44.92;23.13;;;;;;;-145.73;100.00;61044.97;5082515;28;20040;-74
2022/02/26 09:14:11;;;;;;;45.13;24.42;;;;;;;-145.73;100.00;61044.97;5078505;28;20127;-74
2022/02/26 09:17:03;;;;;;;47.80;24.85;;;;;;;-145.73;100.00;61044.97;5083259;28;20051;-72
2022/02/26 09:19:31;;;;;;;47.45;26.50;;;;;;;-145.73;100.00;61044.97;5078579;28;20090;-73
2022/02/26 09:22:03;;;;;;;48.58;23.45;;;;;;;-145.73;100.00;61044.97;5078957;28;20059;-74
2022/02/26 09:24:30;;;;;;;46.28;24.60;;;;;;;-145.73;100.00;61044.97;5060768;28;20053;-73
2022/02/26 09:27:00;;;;;;;40.38;22.50;;;;;;;-145.73;100.00;61044.97;5048109;28;20051;-73
2022/02/26 09:29:28;;;;;;;40.40;23.33;;;;;;;-145.73;100.00;61044.97;5053522;28;20057;-72
2022/02/26 09:31:56;;;;;;;45.30;21.02;;;;;;;-145.73;100.00;61044.97;5079216;28;20468;-71
2022/02/26 09:34:25;;;;;;;33.25;20.55;;;;;;;-145.73;100.00;61044.97;5082835;28;20577;-71
2022/02/26 09:36:53;;;;;;;39.10;19.98;;;;;;;-145.73;100.00;61044.97;5076931;28;20047;-70
2022/02/26 09:39:22;;;;;;;32.78;17.38;;;;;;;-145.73;100.00;61044.97;5082153;28;20536;-69
2022/02/26 09:41:51;;;;;;;25.55;15.25;;;;;;;-145.73;100.00;61044.97;5081769;28;20138;-70
2022/02/26 09:44:21;;;;;;;31.98;16.20;;;;;;;-145.73;100.00;61044.97;5078708;28;20424;-72
2022/02/26 09:46:49;;;;;;;31.63;16.13;;;;;;;-145.73;100.00;61044.97;5082006;28;20086;-73
2022/02/26 09:49:20;;;;;;;25.00;15.07;;;;;;;-145.73;100.00;61044.97;5078005;28;20048;-73
2022/02/26 09:51:48;;;;;;;23.15;13.23;;;;;;;-145.73;100.00;61044.97;5081733;28;20052;-71
2022/02/26 09:54:17;;;;;;;24.30;12.40;;;;;;;-145.73;100.00;61044.97;5074132;28;20044;-71
2022/02/26 09:56:45;;;;;;;23.95;11.85;;;;;;;-145.73;100.00;61044.97;5080269;28;20363;-71
2022/02/26 09:59:14;;;;;;;24.08;12.55;;;;;;;-145.73;100.00;61044.97;5080239;28;20078;-72
2022/02/26 10:02:02;;;;;;;20.52;10.02;;;;;;;-145.73;100.00;61044.97;5079390;28;20060;-71
2022/02/26 10:04:30;;;;;;;18.45;9.80;;;;;;;-145.73;100.00;61044.97;5075262;28;20084;-70
2022/02/26 10:07:10;;;;;;;19.30;10.40;;;;;;;-145.73;100.00;61044.97;5082499;28;20083;-70
2022/02/26 10:09:40;;;;;;;23.02;10.68;;;;;;;-145.73;100.00;61044.97;5075593;28;20062;-70
2022/02/26 10:12:23;;;;;;;18.80;9.48;;;;;;;-145.73;100.00;61044.97;5078878;28;20664;-70
2022/02/26 10:14:53;;;;;;;20.02;9.45;;;;;;;-145.73;100.00;61044.97;5080349;28;20073;-70
2022/02/26 10:17:27;;;;;;;22.83;10.23;;;;;;;-145.73;100.00;61044.97;5083173;28;20475;-71
2022/02/26 10:20:07;;;;;;;23.00;10.10;;;;;;;-145.73;100.00;61044.97;5082427;28;20056;-70
2022/02/26 10:22:37;;;;;;;20.48;8.88;;;;;;;-145.73;100.00;61044.97;5080491;28;20048;-70
2022/02/26 10:25:09;;;;;;;21.60;8.38;;;;;;;-145.73;100.00;61044.97;5082212;28;20093;-70
2022/02/26 10:27:42;;;;;;;18.60;6.53;;;;;;;-145.73;100.00;61044.97;5081497;28;20044;-71
2022/02/26 10:30:14;;;;;;;15.20;6.50;;;;;;;-145.73;100.00;61044.97;5081981;28;20052;-71
2022/02/26 10:32:43;;;;;;;16.88;7.88;;;;;;;-145.73;100.00;61044.97;5078519;28;20048;-70
2022/02/26 10:35:12;;;;;;;18.58;7.18;;;;;;;-145.73;100.00;61044.97;5081507;28;20693;-70
2022/02/26 10:37:40;;;;;;;14.40;7.07;;;;;;;-145.73;100.00;61044.97;5077913;28;20127;-71
2022/02/26 10:40:11;;;;;;;19.60;7.60;;;;;;;-145.73;100.00;61044.97;5083058;28;20158;-71
2022/02/26 10:42:42;;;;;;;15.48;6.22;;;;;;;-145.73;100.00;61044.97;5078687;28;20055;-69
2022/02/26 10:45:12;;;;;;;15.90;5.35;;;;;;;-145.73;100.00;61044.97;5073644;28;20048;-70
2022/02/26 10:47:44;;;;;;;11.93;5.15;;;;;;;-145.73;100.00;61044.97;5083024;28;20059;-69
2022/02/26 10:50:17;;;;;;;11.77;4.50;;;;;;;-145.73;100.00;61044.97;5080881;28;20048;-69
2022/02/26 10:52:56;;;;;;;7.80;4.00;;;;;;;-145.73;100.00;61044.97;5075215;28;20044;-69
2022/02/26 10:55:44;;;;;;;14.38;4.18;;;;;;;-145.73;100.00;61044.97;5081794;28;20550;-70
2022/02/26 10:58:17;;;;;;;12.75;4.85;;;;;;;-145.73;100.00;61044.97;5076084;28;20193;-70
2022/02/26 11:00:46;;;;;;;11.88;4.28;;;;;;;-145.73;100.00;61044.97;5079355;28;20420;-71
2022/02/26 11:03:18;;;;;;;16.05;4.93;;;;;;;-145.73;100.00;61044.97;5079449;28;20071;-69
2022/02/26 11:05:46;;;;;;;10.93;4.07;;;;;;;-145.73;100.00;61044.97;5078146;28;20987;-69
2022/02/26 11:08:15;;;;;;;10.13;3.45;;;;;;;-145.73;100.00;61044.97;5080308;28;20044;-70